createdAt,value
2023-02-14T00:02:12.010Z,14.93
2023-02-14T00:04:44.145Z,14.93
2023-02-14T00:07:12.800Z,14.92
2023-02-14T00:09:41.199Z,14.91
2023-02-14T00:12:11.350Z,14.90
2023-02-14T00:14:57.646Z,14.89
2023-02-14T00:17:26.035Z,14.87
2023-02-14T00:19:54.403Z,14.85
2023-02-14T00:22:22.934Z,14.82
2023-02-14T00:24:51.257Z,14.81
2023-02-14T00:27:21.061Z,14.81
2023-02-14T00:29:49.741Z,14.79
2023-02-14T00:32:18.148Z,14.79
2023-02-14T00:34:46.668Z,14.76
2023-02-14T00:37:15.204Z,14.75
2023-02-14T00:39:43.652Z,14.74
2023-02-14T00:42:13.502Z,14.72
2023-02-14T00:44:43.567Z,14.71
2023-02-14T00:47:12.847Z,14.70
2023-02-14T00:49:41.312Z,14.69
2023-02-14T00:52:09.829Z,14.68
2023-02-14T00:54:38.294Z,14.66
2023-02-14T00:57:06.870Z,14.66
2023-02-14T00:59:37.770Z,14.64
2023-02-14T01:02:07.776Z,14.63
2023-02-14T01:04:36.327Z,14.62
2023-02-14T01:07:05.099Z,14.60
2023-02-14T01:09:34.010Z,14.60
2023-02-14T01:12:04.887Z,14.59
2023-02-14T01:14:33.290Z,14.58
2023-02-14T01:17:01.760Z,14.57
2023-02-14T01:19:32.079Z,14.56
2023-02-14T01:22:01.728Z,14.55
2023-02-14T01:24:30.794Z,14.55
2023-02-14T01:27:01.983Z,14.53
2023-02-14T01:29:30.672Z,14.52
2023-02-14T01:31:59.072Z,14.51
2023-02-14T01:34:27.678Z,14.51
2023-02-14T01:36:58.367Z,14.50
2023-02-14T01:39:27.785Z,14.48
2023-02-14T01:41:56.801Z,14.46
2023-02-14T01:44:57.769Z,14.44
2023-02-14T01:47:28.497Z,14.43
2023-02-14T01:50:02.387Z,14.41
2023-02-14T01:52:36.264Z,14.41
2023-02-14T01:55:09.844Z,14.41
2023-02-14T01:57:42.358Z,14.41
2023-02-14T02:00:29.752Z,14.39
2023-02-14T02:02:59.741Z,14.39
2023-02-14T02:05:29.367Z,14.36
2023-02-14T02:08:02.048Z,14.38
2023-02-14T02:10:30.686Z,14.36
2023-02-14T02:13:05.234Z,14.35
2023-02-14T02:15:43.744Z,14.34
2023-02-14T02:18:20.803Z,14.33
2023-02-14T02:21:40.346Z,14.30
2023-02-14T02:24:32.711Z,14.27
2023-02-14T02:27:29.027Z,14.26
2023-02-14T02:30:40.845Z,14.24
2023-02-14T02:33:57.314Z,14.22
2023-02-14T02:37:04.359Z,14.19
2023-02-14T02:39:52.377Z,14.18
2023-02-14T02:42:34.933Z,14.18
2023-02-14T02:45:13.370Z,14.18
2023-02-14T02:47:49.878Z,14.17
2023-02-14T02:50:44.216Z,14.17
2023-02-14T02:53:21.236Z,14.14
2023-02-14T02:56:12.874Z,14.16
2023-02-14T02:58:48.166Z,14.13
2023-02-14T03:01:22.280Z,14.13
2023-02-14T03:04:14.121Z,14.12
2023-02-14T03:06:42.759Z,14.10
2023-02-14T03:09:14.875Z,14.09
2023-02-14T03:11:52.057Z,14.09
2023-02-14T03:14:22.965Z,14.07
2023-02-14T03:17:01.627Z,14.09
2023-02-14T03:20:04.208Z,14.06
2023-02-14T03:22:50.458Z,14.03
2023-02-14T03:25:34.768Z,14.04
2023-02-14T03:28:14.523Z,14.04
2023-02-14T03:30:52.352Z,14.02
2023-02-14T03:33:28.148Z,14.01
2023-02-14T03:36:02.747Z,14.01
2023-02-14T03:38:37.172Z,14.00
2023-02-14T03:41:13.013Z,13.98
2023-02-14T03:43:46.378Z,13.98
2023-02-14T03:46:19.996Z,13.97
2023-02-14T03:48:49.581Z,13.95
2023-02-14T03:51:19.675Z,13.94
2023-02-14T03:53:52.105Z,13.94
2023-02-14T03:56:29.889Z,13.92
2023-02-14T03:59:06.141Z,13.90
2023-02-14T04:01:40.715Z,13.87
2023-02-14T04:04:10.175Z,13.84
2023-02-14T04:06:38.582Z,13.81
2023-02-14T04:09:07.097Z,13.77
2023-02-14T04:11:38.596Z,13.77
2023-02-14T04:14:07.484Z,13.75
2023-02-14T04:16:56.835Z,13.73
2023-02-14T04:19:24.216Z,13.70
2023-02-14T04:21:54.050Z,13.70
2023-02-14T04:24:22.495Z,13.67
2023-02-14T04:27:10.654Z,13.67
2023-02-14T04:29:41.928Z,13.64
2023-02-14T04:32:14.644Z,13.63
2023-02-14T04:34:43.135Z,13.61
2023-02-14T04:37:12.447Z,13.58
2023-02-14T04:39:41.100Z,13.56
2023-02-14T04:42:11.044Z,13.56
2023-02-14T04:44:39.641Z,13.54
2023-02-14T04:47:08.563Z,13.53
2023-02-14T04:49:37.778Z,13.51
2023-02-14T04:52:07.317Z,13.49
2023-02-14T04:54:35.752Z,13.48
2023-02-14T04:57:04.295Z,13.46
2023-02-14T04:59:34.518Z,13.44
2023-02-14T05:02:03.099Z,13.43
2023-02-14T05:04:31.586Z,13.41
2023-02-14T05:07:00.020Z,13.40
2023-02-14T05:09:29.369Z,13.39
2023-02-14T05:11:57.685Z,13.38
2023-02-14T05:14:26.157Z,13.37
2023-02-14T05:16:56.261Z,13.35
2023-02-14T05:19:24.952Z,13.34
2023-02-14T05:21:53.291Z,13.31
2023-02-14T05:24:21.683Z,13.30
2023-02-14T05:26:50.138Z,13.29
2023-02-14T05:29:18.644Z,13.26
2023-02-14T05:31:47.083Z,13.26
2023-02-14T05:34:16.882Z,13.24
2023-02-14T05:36:45.641Z,13.23
2023-02-14T05:39:15.034Z,13.23
2023-02-14T05:41:43.394Z,13.21
2023-02-14T05:44:11.812Z,13.20
2023-02-14T05:46:40.330Z,13.19
2023-02-14T05:49:08.698Z,13.19
2023-02-14T05:51:38.498Z,13.19
2023-02-14T05:54:07.785Z,13.17
2023-02-14T05:56:37.419Z,13.16
2023-02-14T05:59:05.788Z,13.15
2023-02-14T06:01:34.195Z,13.14
2023-02-14T06:04:02.911Z,13.13
2023-02-14T06:06:31.292Z,13.12
2023-02-14T06:09:01.068Z,13.10
2023-02-14T06:11:29.442Z,13.10
2023-02-14T06:13:57.867Z,13.09
2023-02-14T06:16:26.423Z,13.08
2023-02-14T06:18:57.825Z,13.07
2023-02-14T06:21:26.792Z,13.03
2023-02-14T06:23:55.323Z,13.03
2023-02-14T06:26:27.862Z,13.04
2023-02-14T06:28:57.100Z,13.02
2023-02-14T06:31:26.463Z,13.01
2023-02-14T06:33:55.686Z,13.00
2023-02-14T06:36:25.087Z,13.01
2023-02-14T06:38:53.699Z,13.02
2023-02-14T06:41:22.209Z,13.00
2023-02-14T06:43:52.043Z,13.01
2023-02-14T06:46:21.108Z,13.00
2023-02-14T06:48:49.633Z,12.99
2023-02-14T06:51:18.072Z,13.00
2023-02-14T06:53:46.845Z,12.99
2023-02-14T06:56:15.216Z,13.00
2023-02-14T06:58:43.599Z,13.00
2023-02-14T07:01:13.375Z,13.00
2023-02-14T07:03:41.802Z,13.01
2023-02-14T07:06:10.693Z,13.00
2023-02-14T07:08:39.734Z,13.01
2023-02-14T07:11:08.096Z,13.00
2023-02-14T07:13:36.503Z,13.00
2023-02-14T07:16:05.319Z,12.99
2023-02-14T07:18:35.282Z,13.01
2023-02-14T07:21:03.836Z,13.01
2023-02-14T07:23:32.714Z,13.01
2023-02-14T07:26:01.118Z,13.01
2023-02-14T07:28:30.396Z,13.03
2023-02-14T07:31:02.215Z,13.03
2023-02-14T07:33:30.946Z,13.03
2023-02-14T07:36:05.534Z,13.06
2023-02-14T07:38:33.909Z,13.06
2023-02-14T07:41:02.808Z,13.08
2023-02-14T07:43:31.302Z,13.09
2023-02-14T07:46:01.522Z,13.10
2023-02-14T07:48:31.951Z,13.09
2023-02-14T07:51:03.783Z,13.11
2023-02-14T07:53:32.657Z,13.12
2023-02-14T07:56:01.334Z,13.13
2023-02-14T07:58:29.860Z,13.12
2023-02-14T08:00:58.817Z,13.14
2023-02-14T08:03:27.565Z,13.16
2023-02-14T08:05:57.994Z,13.15
2023-02-14T08:08:30.978Z,13.18
2023-02-14T08:11:00.649Z,13.16
2023-02-14T08:13:28.544Z,13.18
2023-02-14T08:16:06.532Z,13.19
2023-02-14T08:18:38.158Z,13.21
2023-02-14T08:21:09.040Z,13.22
2023-02-14T08:23:39.558Z,13.22
2023-02-14T08:26:08.708Z,13.22
2023-02-14T08:28:37.140Z,13.24
2023-02-14T08:31:06.490Z,13.27
2023-02-14T08:33:35.141Z,13.28
2023-02-14T08:36:03.926Z,13.30
2023-02-14T08:38:32.420Z,13.31
2023-02-14T08:41:06.708Z,13.34
2023-02-14T08:43:37.713Z,13.35
2023-02-14T08:46:06.286Z,13.36
2023-02-14T08:48:39.212Z,13.41
2023-02-14T08:51:09.224Z,13.43
2023-02-14T08:53:38.024Z,13.45
2023-02-14T08:56:10.444Z,13.49
2023-02-14T08:58:40.082Z,13.52
2023-02-14T09:01:11.268Z,13.55
2023-02-14T09:03:40.373Z,13.61
2023-02-14T09:06:14.042Z,13.65
2023-02-14T09:08:42.608Z,13.69
2023-02-14T09:11:15.803Z,13.75
2023-02-14T09:13:44.588Z,13.77
2023-02-14T09:16:17.294Z,13.80
2023-02-14T09:18:47.624Z,13.85
2023-02-14T09:21:19.873Z,13.90
2023-02-14T09:23:48.589Z,13.93
2023-02-14T09:26:19.427Z,13.98
2023-02-14T09:28:48.882Z,14.02
2023-02-14T09:31:20.488Z,14.07
2023-02-14T09:33:51.500Z,14.11
2023-02-14T09:36:37.738Z,14.14
2023-02-14T09:39:06.262Z,14.16
2023-02-14T09:42:10.288Z,14.22
2023-02-14T09:44:42.064Z,14.26
2023-02-14T09:47:21.617Z,14.32
2023-02-14T09:49:52.490Z,14.35
2023-02-14T09:52:27.720Z,14.41
2023-02-14T09:55:00.835Z,14.45
2023-02-14T09:57:39.677Z,14.52
2023-02-14T10:00:20.283Z,14.57
2023-02-14T10:03:00.278Z,14.62
2023-02-14T10:05:32.189Z,14.67
2023-02-14T10:08:13.216Z,14.75
2023-02-14T10:10:43.666Z,14.79
2023-02-14T10:13:20.326Z,14.85
2023-02-14T10:15:52.164Z,14.88
2023-02-14T10:18:26.434Z,14.94
2023-02-14T10:20:59.551Z,14.99
2023-02-14T10:23:33.872Z,15.03
2023-02-14T10:26:05.975Z,15.06
2023-02-14T10:28:40.462Z,15.11
2023-02-14T10:31:22.991Z,15.18
2023-02-14T10:33:58.879Z,15.22
2023-02-14T10:36:52.832Z,15.25
2023-02-14T10:39:52.019Z,15.32
2023-02-14T10:42:31.337Z,15.37
2023-02-14T10:45:17.151Z,15.42
2023-02-14T10:47:55.963Z,15.47
2023-02-14T10:50:33.338Z,15.52
2023-02-14T10:53:14.281Z,15.57
2023-02-14T10:55:50.339Z,15.61
2023-02-14T10:58:22.620Z,15.66
2023-02-14T11:01:02.954Z,15.70
2023-02-14T11:03:31.822Z,15.71
2023-02-14T11:06:00.572Z,15.76
2023-02-14T11:08:34.789Z,15.82
2023-02-14T11:11:12.413Z,15.85
2023-02-14T11:13:43.708Z,15.92
2023-02-14T11:16:29.742Z,15.97
2023-02-14T11:19:15.928Z,16.00
2023-02-14T11:21:46.935Z,16.03
2023-02-14T11:24:24.258Z,16.07
2023-02-14T11:26:55.534Z,16.10
2023-02-14T11:29:31.119Z,16.18
2023-02-14T11:32:10.708Z,16.22
2023-02-14T11:34:42.405Z,16.26
2023-02-14T11:37:26.970Z,16.30
2023-02-14T11:39:58.248Z,16.33
2023-02-14T11:42:47.733Z,16.36
2023-02-14T11:45:33.881Z,16.39
2023-02-14T11:48:22.300Z,16.43
2023-02-14T11:51:05.265Z,16.43
2023-02-14T11:53:45.801Z,16.46
2023-02-14T11:56:15.672Z,16.49
2023-02-14T11:58:51.028Z,16.54
2023-02-14T12:01:26.906Z,16.59
2023-02-14T12:04:01.268Z,16.64
2023-02-14T12:06:32.666Z,16.69
2023-02-14T12:09:14.545Z,16.73
2023-02-14T12:11:55.600Z,16.75
2023-02-14T12:14:26.688Z,16.78
2023-02-14T12:17:03.383Z,16.84
2023-02-14T12:19:40.162Z,16.89
2023-02-14T12:22:12.573Z,16.94
2023-02-14T12:24:51.882Z,16.99
2023-02-14T12:27:25.943Z,17.02
2023-02-14T12:30:01.062Z,17.06
2023-02-14T12:32:31.734Z,17.09
2023-02-14T12:35:07.543Z,17.13
2023-02-14T12:38:03.805Z,17.17
2023-02-14T12:40:45.318Z,17.19
2023-02-14T12:43:41.097Z,17.23
2023-02-14T12:49:59.635Z,17.26
2023-02-14T12:52:47.430Z,17.28
2023-02-14T12:55:42.006Z,17.33
2023-02-14T12:58:31.812Z,17.37
2023-02-14T13:01:24.766Z,17.42
2023-02-14T13:04:24.728Z,17.46
2023-02-14T13:06:58.139Z,17.53
2023-02-14T13:09:40.264Z,17.60
2023-02-14T13:12:28.039Z,17.65
2023-02-14T13:15:10.917Z,17.68
2023-02-14T13:17:45.360Z,17.72
2023-02-14T13:20:45.385Z,17.75
2023-02-14T13:23:19.094Z,17.79
2023-02-14T13:25:54.348Z,17.84
2023-02-14T13:28:23.305Z,17.87
2023-02-14T13:30:51.793Z,17.89
2023-02-14T13:33:31.204Z,17.91
2023-02-14T13:36:04.715Z,17.92
2023-02-14T13:38:33.855Z,17.95
2023-02-14T13:41:05.655Z,17.98
2023-02-14T13:43:56.346Z,18.01
2023-02-14T13:46:52.315Z,18.05
2023-02-14T13:49:39.722Z,18.08
2023-02-14T13:52:10.471Z,18.13
2023-02-14T13:54:46.792Z,18.20
2023-02-14T13:57:34.368Z,18.28
2023-02-14T14:00:42.686Z,18.33
2023-02-14T14:03:16.285Z,18.37
2023-02-14T14:06:04.875Z,18.44
2023-02-14T14:08:46.389Z,18.49
2023-02-14T14:12:02.777Z,18.50
2023-02-14T14:14:39.936Z,18.52
2023-02-14T14:17:29.245Z,18.54
2023-02-14T14:19:58.100Z,18.53
2023-02-14T14:22:28.012Z,18.56
2023-02-14T14:25:00.852Z,18.58
2023-02-14T14:27:34.912Z,18.62
2023-02-14T14:30:09.770Z,18.64
2023-02-14T14:32:39.735Z,18.65
2023-02-14T14:35:19.645Z,18.67
2023-02-14T14:37:51.937Z,18.68
2023-02-14T14:40:26.680Z,18.70
2023-02-14T14:43:06.918Z,18.70
2023-02-14T14:45:36.879Z,18.69
2023-02-14T14:48:14.369Z,18.70
2023-02-14T14:50:46.607Z,18.70
2023-02-14T14:53:25.045Z,18.72
2023-02-14T14:55:54.773Z,18.69
2023-02-14T14:58:39.428Z,18.69
2023-02-14T15:01:21.359Z,18.68
2023-02-14T15:03:49.958Z,18.68
2023-02-14T15:06:21.871Z,18.69
2023-02-14T15:08:51.484Z,18.68
2023-02-14T15:11:42.136Z,18.66
2023-02-14T15:14:17.144Z,18.61
2023-02-14T15:16:50.667Z,18.60
2023-02-14T15:19:23.364Z,18.61
2023-02-14T15:21:51.921Z,18.61
2023-02-14T15:24:21.394Z,18.61
2023-02-14T15:26:53.414Z,18.63
2023-02-14T15:29:26.059Z,18.64
2023-02-14T15:31:57.852Z,18.65
2023-02-14T15:34:31.518Z,18.65
2023-02-14T15:37:03.952Z,18.65
2023-02-14T15:39:37.360Z,18.66
2023-02-14T15:42:06.680Z,18.64
2023-02-14T15:44:35.126Z,18.63
2023-02-14T15:47:06.846Z,18.64
2023-02-14T15:49:40.952Z,18.64
2023-02-14T15:52:14.065Z,18.63
2023-02-14T15:54:46.441Z,18.62
2023-02-14T15:57:25.449Z,18.60
2023-02-14T15:59:54.061Z,18.59
2023-02-14T16:02:31.447Z,18.59
2023-02-14T16:05:07.225Z,18.57
2023-02-14T16:07:35.745Z,18.52
2023-02-14T16:10:24.486Z,18.51
2023-02-14T16:12:59.388Z,18.49
2023-02-14T16:15:29.991Z,18.46
2023-02-14T16:18:01.004Z,18.45
2023-02-14T16:20:40.813Z,18.43
2023-02-14T16:23:22.689Z,18.40
2023-02-14T16:25:51.536Z,18.37
2023-02-14T16:28:20.155Z,18.35
2023-02-14T16:30:55.539Z,18.33
2023-02-14T16:33:30.035Z,18.32
2023-02-14T16:36:06.595Z,18.30
2023-02-14T16:38:42.993Z,18.28
2023-02-14T16:41:18.029Z,18.27
2023-02-14T16:43:47.538Z,18.23
2023-02-14T16:46:21.316Z,18.21
2023-02-14T16:48:52.490Z,18.18
2023-02-14T16:51:24.798Z,18.15
2023-02-14T16:53:53.726Z,18.16
2023-02-14T16:56:27.712Z,18.15
2023-02-14T16:58:57.892Z,18.13
2023-02-14T17:01:26.540Z,18.12
2023-02-14T17:03:56.496Z,18.10
2023-02-14T17:06:28.979Z,18.08
2023-02-14T17:09:00.040Z,18.05
2023-02-14T17:11:32.698Z,18.04
2023-02-14T17:14:01.288Z,18.01
2023-02-14T17:16:32.299Z,18.00
2023-02-14T17:19:04.264Z,17.99
2023-02-14T17:21:34.349Z,17.97
2023-02-14T17:24:03.451Z,17.94
2023-02-14T17:26:33.826Z,17.93
2023-02-14T17:29:02.333Z,17.91
2023-02-14T17:31:30.884Z,17.89
2023-02-14T17:33:59.348Z,17.87
2023-02-14T17:36:29.273Z,17.85
2023-02-14T17:38:57.660Z,17.81
2023-02-14T17:41:29.278Z,17.80
2023-02-14T17:44:00.339Z,17.77
2023-02-14T17:46:29.688Z,17.74
2023-02-14T17:49:01.750Z,17.72
2023-02-14T17:51:32.038Z,17.70
2023-02-14T17:54:00.682Z,17.69
2023-02-14T17:56:29.292Z,17.66
2023-02-14T17:58:57.777Z,17.64
2023-02-14T18:01:31.275Z,17.61
2023-02-14T18:03:59.758Z,17.60
2023-02-14T18:06:28.099Z,17.59
2023-02-14T18:08:58.486Z,17.57
2023-02-14T18:11:29.424Z,17.56
2023-02-14T18:13:59.592Z,17.53
2023-02-14T18:16:28.560Z,17.51
2023-02-14T18:18:56.936Z,17.49
2023-02-14T18:21:25.388Z,17.46
2023-02-14T18:23:53.742Z,17.46
2023-02-14T18:26:23.671Z,17.42
2023-02-14T18:28:52.419Z,17.42
2023-02-14T18:31:21.848Z,17.37
2023-02-14T18:33:51.760Z,17.36
2023-02-14T18:36:24.124Z,17.33
2023-02-14T18:38:52.745Z,17.29
2023-02-14T18:41:23.496Z,17.25
2023-02-14T18:43:52.457Z,17.24
2023-02-14T18:46:23.256Z,17.23
2023-02-14T18:48:52.492Z,17.19
2023-02-14T18:51:23.537Z,17.16
2023-02-14T18:53:52.851Z,17.14
2023-02-14T18:56:27.121Z,17.12
2023-02-14T18:58:59.883Z,17.09
2023-02-14T19:01:31.618Z,17.06
2023-02-14T19:04:01.474Z,17.04
2023-02-14T19:06:32.356Z,17.02
2023-02-14T19:09:01.413Z,16.98
2023-02-14T19:11:33.819Z,16.98
2023-02-14T19:14:09.337Z,16.94
2023-02-14T19:16:43.711Z,16.93
2023-02-14T19:19:12.492Z,16.89
2023-02-14T19:21:43.472Z,16.88
2023-02-14T19:24:12.070Z,16.87
2023-02-14T19:26:41.990Z,16.85
2023-02-14T19:29:12.713Z,16.81
2023-02-14T19:31:45.381Z,16.80
2023-02-14T19:34:19.518Z,16.78
2023-02-14T19:36:49.527Z,16.75
2023-02-14T19:39:18.979Z,16.75
2023-02-14T19:41:50.041Z,16.73
2023-02-14T19:44:19.788Z,16.71
2023-02-14T19:46:48.750Z,16.71
2023-02-14T19:49:20.411Z,16.69
2023-02-14T19:51:55.131Z,16.68
2023-02-14T19:54:25.570Z,16.66
2023-02-14T19:56:56.289Z,16.64
2023-02-14T19:59:24.924Z,16.62
2023-02-14T20:01:54.812Z,16.61
2023-02-14T20:04:26.024Z,16.59
2023-02-14T20:06:55.796Z,16.57
2023-02-14T20:09:25.600Z,16.55
2023-02-14T20:11:57.537Z,16.55
2023-02-14T20:14:27.883Z,16.52
2023-02-14T20:16:58.618Z,16.50
2023-02-14T20:19:32.150Z,16.49
2023-02-14T20:22:01.656Z,16.49
2023-02-14T20:24:32.589Z,16.49
2023-02-14T20:27:02.953Z,16.47
2023-02-14T20:29:34.325Z,16.45
2023-02-14T20:32:04.873Z,16.43
2023-02-14T20:34:33.387Z,16.43
2023-02-14T20:37:01.822Z,16.41
2023-02-14T20:39:32.880Z,16.40
2023-02-14T20:42:03.697Z,16.39
2023-02-14T20:44:32.577Z,16.36
2023-02-14T20:47:01.139Z,16.32
2023-02-14T20:49:31.143Z,16.33
2023-02-14T20:52:00.630Z,16.31
2023-02-14T20:54:31.814Z,16.30
2023-02-14T20:57:00.239Z,16.27
2023-02-14T20:59:30.705Z,16.27
2023-02-14T21:02:00.338Z,16.26
2023-02-14T21:04:29.851Z,16.24
2023-02-14T21:07:00.411Z,16.24
2023-02-14T21:09:32.875Z,16.21
2023-02-14T21:12:01.466Z,16.19
2023-02-14T21:14:31.780Z,16.20
2023-02-14T21:17:00.224Z,16.19
2023-02-14T21:19:28.734Z,16.17
2023-02-14T21:21:57.445Z,16.15
2023-02-14T21:24:26.181Z,16.14
2023-02-14T21:26:54.796Z,16.12
2023-02-14T21:29:24.113Z,16.11
2023-02-14T21:31:54.149Z,16.09
2023-02-14T21:34:22.843Z,16.05
2023-02-14T21:36:56.068Z,16.04
2023-02-14T21:39:27.532Z,16.01
2023-02-14T21:41:56.436Z,15.98
2023-02-14T21:44:38.988Z,15.97
2023-02-14T21:47:09.018Z,15.94
2023-02-14T21:49:55.038Z,15.90
2023-02-14T21:52:23.865Z,15.88
2023-02-14T21:54:52.538Z,15.85
2023-02-14T21:57:20.997Z,15.83
2023-02-14T21:59:49.888Z,15.81
2023-02-14T22:02:20.474Z,15.80
2023-02-14T22:04:49.166Z,15.78
2023-02-14T22:07:17.904Z,15.75
2023-02-14T22:09:46.364Z,15.72
2023-02-14T22:12:14.928Z,15.71
2023-02-14T22:14:43.479Z,15.68
2023-02-14T22:17:11.910Z,15.68
2023-02-14T22:19:42.100Z,15.65
2023-02-14T22:22:10.635Z,15.62
2023-02-14T22:24:39.078Z,15.62
2023-02-14T22:27:07.502Z,15.60
2023-02-14T22:29:38.587Z,15.59
2023-02-14T22:32:07.252Z,15.56
2023-02-14T22:34:36.053Z,15.55
2023-02-14T22:37:06.797Z,15.53
2023-02-14T22:39:36.467Z,15.50
2023-02-14T22:42:06.932Z,15.50
2023-02-14T22:44:35.415Z,15.47
2023-02-14T22:47:04.308Z,15.44
2023-02-14T22:49:32.992Z,15.43
2023-02-14T22:52:01.552Z,15.41
2023-02-14T22:54:31.503Z,15.40
2023-02-14T22:57:00.899Z,15.36
2023-02-14T22:59:31.216Z,15.35
2023-02-14T23:01:59.643Z,15.33
2023-02-14T23:04:29.780Z,15.32
2023-02-14T23:06:58.329Z,15.31
2023-02-14T23:09:28.215Z,15.28
2023-02-14T23:11:57.986Z,15.27
2023-02-14T23:14:44.259Z,15.25
2023-02-14T23:17:45.651Z,15.24
2023-02-14T23:20:31.588Z,15.20
2023-02-14T23:22:59.971Z,15.19
2023-02-14T23:25:31.721Z,15.17
2023-02-14T23:28:01.623Z,15.14
2023-02-14T23:30:30.601Z,15.11
2023-02-14T23:32:59.000Z,15.10
2023-02-14T23:35:27.850Z,15.09
2023-02-14T23:37:59.199Z,15.09
2023-02-14T23:40:27.665Z,15.08
2023-02-14T23:42:56.223Z,15.06
2023-02-14T23:45:38.747Z,15.05
2023-02-14T23:48:07.479Z,15.04
2023-02-14T23:50:36.101Z,15.02
2023-02-14T23:53:04.595Z,15.01
2023-02-14T23:55:33.578Z,15.00
2023-02-14T23:58:02.390Z,14.98
